Aérodrome :
LOGIN :

S'inscrire | Disclaimer

   EN    FR    IT 

 










Légende :    VFR   VFR Marginal   IFR   IFR Intensif   IFR Très Intensif
Visi : 
Plafond : 
>= 8 km
>= 3000ft
5 à 8 km
1000 à 3000 ft
1500m à 5 km
500 à 1000 ft
800 à 1500m
200 à 500 ft
< 800m
< 200 ft
Symboles :   Orages  Brouillard  Fortes neiges  Fortes précipitations  Vent > 20 kt
SIGMETs :   Divers  Orages  Givrage  Turbulence  Onde Orograph.  Cendres Volcan.






- Altitude de l'aérodrome : 1496 ft
- Code IATA : SBZ


LRSB - Sibiu

DERNIER METAR :
  • 210530Z 12011KT 9999 SCT051 BKN064 09/06 Q1018

METARs EXPIRÉS :
  • 210500Z 11009KT 9999 FEW046 SCT060 08/06 Q1018
  • 210430Z 10009KT 9999 SCT060 08/05 Q1018
  • 210400Z 11010KT CAVOK 09/06 Q1018
  • 210330Z 09006KT CAVOK 08/05 Q1018
  • 210300Z 10009KT CAVOK 08/05 Q1018
  • 210230Z 11010KT CAVOK 09/06 Q1018

TAF TAF LRSB
Valide du 21 à 06h jusqu'au 22 à 06h UTC


210500Z 2106/2206 12012KT 9999 SCT045
BECMG 2117/2119 5000 BR BKN015
TEMPO 2122/2206 3000 BR BKN010



MET'MAP, la Météo Aéronautique d'un coup d'oeil ! - Copyright ORBIFLY Décembre 2007 - Disclaimer

ORBIFLY MET'MAP TEAM :

Programmation & Développement : Alexandra Zaïnal
Conception & Développement : Baudouin d'Aumeries
Co-Programmation & Développement : Marc-Olivier Méhu
Soutien technique & logistique : Manuel Goepfert

Contact : metmap@orbifly.com




SOURCES & CREDITS :

   NOAA